Nuray Senkaya — TCSN6 — position and weather

sailwx.info

Track history (hours):
 
Tides and Currents Weather Stations Pressure Air Temp Water Temp Dewpoint Dewpoint Depression Visibility Wind Speed Wind Dir Waves Ship Positions

Nuray Senkaya

Last reported at 2018-Feb-10 00:48 UTC. Time now 2018-Feb-19 04:21 UTC.
Position N 33°39' E 034°28'.
Warning: this ship's position is 9 days out of date.

Length 109 m; draft 4 m.

Type: Cargo ship. MMSI: 271000926.

Date/timePositionNaut miles runAvg speedWind from/ knotsBaromVisibWave heightAir tempDewpointWater temp
2018-Feb-10 00:48N 33°39' E 034°28'410.5
2018-Feb-10 00:25N 33°35' E 034°27'510.3
2018-Feb-09 23:56N 33°30' E 034°26'410.2
2018-Feb-09 23:30N 33°26' E 034°25'810.4
2018-Feb-09 22:46N 33°18' E 034°24'0 9.9
2018-Feb-09 22:46N 33°18' E 034°24'81 9.8
2018-Feb-09 14:30N 31°58' E 034°18'  
2018-Feb-06 16:52N 31°50' E 034°37'0 0.0
2018-Feb-06 16:22N 31°50' E 034°37'0 0.0
2018-Feb-06 15:52N 31°50' E 034°37'0 0.0
2018-Feb-06 15:28N 31°50' E 034°37'0 0.0
2018-Feb-06 14:58N 31°50' E 034°37'0 0.0
2018-Feb-06 14:28N 31°50' E 034°37'0 0.0
2018-Feb-06 13:58N 31°50' E 034°37'0 0.0
2018-Feb-06 13:25N 31°50' E 034°37'0 0.0
2018-Feb-06 12:58N 31°50' E 034°37'0 0.0
2018-Feb-06 12:28N 31°50' E 034°37'0 0.0
2018-Feb-06 11:58N 31°50' E 034°37'0 0.0
2018-Feb-06 11:25N 31°50' E 034°37'0 0.0
2018-Feb-06 10:58N 31°50' E 034°37'11 0.4
2018-Feb-05 05:12N 31°55' E 034°25'2 8.9
2018-Feb-05 05:00N 31°56' E 034°23'4 9.0
2018-Feb-05 04:30N 31°58' E 034°18'4 8.9
2018-Feb-05 04:00N 31°60' E 034°14'5 9.2
2018-Feb-05 03:30N 32°04' E 034°14'5 9.3
2018-Feb-05 03:00N 32°09' E 034°15'5 9.1
2018-Feb-05 02:30N 32°13' E 034°15'4 8.9
2018-Feb-05 02:00N 32°18' E 034°16'4 8.8
2018-Feb-05 01:30N 32°22' E 034°17'9 8.6
2018-Feb-05 00:24N 32°32' E 034°18'4 8.6
2018-Feb-04 23:55N 32°36' E 034°18'4 9.1
2018-Feb-04 23:30N 32°40' E 034°19'5 9.3
2018-Feb-04 22:56N 32°45' E 034°19'4 9.4
2018-Feb-04 22:30N 32°49' E 034°20'5 9.3
2018-Feb-04 22:00N 32°53' E 034°20'5 9.1
2018-Feb-04 21:30N 32°58' E 034°21'5 9.2
2018-Feb-04 21:00N 33°02' E 034°21'9 9.0
2018-Feb-04 20:00N 33°11' E 034°23'5 9.2
2018-Feb-04 19:27N 33°16' E 034°23'  
Track history (hours):
 
Tides and Currents Weather Stations Pressure Air Temp Water Temp Dewpoint Dewpoint Depression Visibility Wind Speed Wind Dir Waves Ship Positions

Nuray Senkaya

Last reported at 2018-Feb-10 00:48 UTC. Time now 2018-Feb-19 04:21 UTC.
Position N 33°39' E 034°28'.
Warning: this ship's position is 9 days out of date.

Length 109 m; draft 4 m.

Type: Cargo ship. MMSI: 271000926.

Date/timePositionNaut miles runAvg speedWind from/ knotsBaromVisibWave heightAir tempDewpointWater temp
2018-Feb-10 00:48N 33°39' E 034°28'410.5
2018-Feb-10 00:25N 33°35' E 034°27'510.3
2018-Feb-09 23:56N 33°30' E 034°26'410.2
2018-Feb-09 23:30N 33°26' E 034°25'810.4
2018-Feb-09 22:46N 33°18' E 034°24'0 9.9
2018-Feb-09 22:46N 33°18' E 034°24'81 9.8
2018-Feb-09 14:30N 31°58' E 034°18'  
2018-Feb-06 16:52N 31°50' E 034°37'0 0.0
2018-Feb-06 16:22N 31°50' E 034°37'0 0.0
2018-Feb-06 15:52N 31°50' E 034°37'0 0.0
2018-Feb-06 15:28N 31°50' E 034°37'0 0.0
2018-Feb-06 14:58N 31°50' E 034°37'0 0.0
2018-Feb-06 14:28N 31°50' E 034°37'0 0.0
2018-Feb-06 13:58N 31°50' E 034°37'0 0.0
2018-Feb-06 13:25N 31°50' E 034°37'0 0.0
2018-Feb-06 12:58N 31°50' E 034°37'0 0.0
2018-Feb-06 12:28N 31°50' E 034°37'0 0.0
2018-Feb-06 11:58N 31°50' E 034°37'0 0.0
2018-Feb-06 11:25N 31°50' E 034°37'0 0.0
2018-Feb-06 10:58N 31°50' E 034°37'11 0.4
2018-Feb-05 05:12N 31°55' E 034°25'2 8.9
2018-Feb-05 05:00N 31°56' E 034°23'4 9.0
2018-Feb-05 04:30N 31°58' E 034°18'4 8.9
2018-Feb-05 04:00N 31°60' E 034°14'5 9.2
2018-Feb-05 03:30N 32°04' E 034°14'5 9.3
2018-Feb-05 03:00N 32°09' E 034°15'5 9.1
2018-Feb-05 02:30N 32°13' E 034°15'4 8.9
2018-Feb-05 02:00N 32°18' E 034°16'4 8.8
2018-Feb-05 01:30N 32°22' E 034°17'9 8.6
2018-Feb-05 00:24N 32°32' E 034°18'4 8.6
2018-Feb-04 23:55N 32°36' E 034°18'4 9.1
2018-Feb-04 23:30N 32°40' E 034°19'5 9.3
2018-Feb-04 22:56N 32°45' E 034°19'4 9.4
2018-Feb-04 22:30N 32°49' E 034°20'5 9.3
2018-Feb-04 22:00N 32°53' E 034°20'5 9.1
2018-Feb-04 21:30N 32°58' E 034°21'5 9.2
2018-Feb-04 21:00N 33°02' E 034°21'9 9.0
2018-Feb-04 20:00N 33°11' E 034°23'5 9.2
2018-Feb-04 19:27N 33°16' E 034°23'  

Dump ship's entire track history